createdAt,value
2022-12-18T00:02:23.007Z,91905.41
2022-12-18T00:04:49.614Z,91887.47
2022-12-18T00:07:16.308Z,91893.66
2022-12-18T00:09:42.959Z,91899.34
2022-12-18T00:14:45.619Z,91904.06
2022-12-18T00:17:12.318Z,91906.06
2022-12-18T00:19:38.986Z,91913.22
2022-12-18T00:22:07.328Z,91915.84
2022-12-18T00:24:34.036Z,91914.47
2022-12-18T00:27:00.695Z,91920.13
2022-12-18T00:29:27.409Z,91912.84
2022-12-18T00:32:01.162Z,91926.72
2022-12-18T00:34:27.907Z,91930.88
2022-12-18T00:36:54.561Z,91924.09
2022-12-18T00:39:22.007Z,91928.91
2022-12-18T00:42:07.632Z,91924.81
2022-12-18T00:44:34.740Z,91927.94
2022-12-18T00:47:01.790Z,91933.09
2022-12-18T00:49:28.495Z,91926.19
2022-12-18T00:51:56.212Z,91935.09
2022-12-18T00:54:22.969Z,91931.19
2022-12-18T00:56:50.077Z,91945.63
2022-12-18T00:59:20.083Z,91943.28
2022-12-18T01:01:47.917Z,91946.47
2022-12-18T01:04:15.260Z,91951.97
2022-12-18T01:06:41.966Z,91949.09
2022-12-18T01:09:08.634Z,91938.94
2022-12-18T01:11:35.569Z,91944.94
2022-12-18T01:14:02.240Z,91940.53
2022-12-18T01:16:29.085Z,91944.66
2022-12-18T01:18:56.364Z,91943.44
2022-12-18T01:21:23.885Z,91942.75
2022-12-18T01:23:55.619Z,91935.69
2022-12-18T01:26:23.323Z,91941.09
2022-12-18T01:28:50.020Z,91948.69
2022-12-18T01:31:25.725Z,91940.09
2022-12-18T01:33:53.761Z,91955.50
2022-12-18T01:36:21.684Z,91946.53
2022-12-18T01:38:50.375Z,91952.47
2022-12-18T01:41:20.487Z,91947.91
2022-12-18T01:43:55.235Z,91943.09
2022-12-18T01:46:24.205Z,91943.94
2022-12-18T01:48:54.763Z,91946.56
2022-12-18T01:51:22.537Z,91948.44
2022-12-18T01:53:49.577Z,91941.66
2022-12-18T01:56:19.794Z,91938.53
2022-12-18T01:59:11.242Z,91932.72
2022-12-18T02:01:39.066Z,91946.22
2022-12-18T02:04:32.316Z,91946.31
2022-12-18T02:06:58.931Z,91945.97
2022-12-18T02:09:33.930Z,91948.09
2022-12-18T02:12:06.378Z,91945.81
2022-12-18T02:14:49.332Z,91947.91
2022-12-18T02:17:16.165Z,91949.19
2022-12-18T02:19:56.966Z,91948.09
2022-12-18T02:22:41.597Z,91939.41
2022-12-18T02:25:25.367Z,91944.91
2022-12-18T02:27:53.338Z,91950.31
2022-12-18T02:30:20.569Z,91941.78
2022-12-18T02:32:52.074Z,91941.69
2022-12-18T02:35:28.039Z,91937.19
2022-12-18T02:37:55.580Z,91943.00
2022-12-18T02:40:25.669Z,91945.13
2022-12-18T02:42:52.360Z,91942.84
2022-12-18T02:45:19.179Z,91944.47
2022-12-18T02:47:49.463Z,91941.22
2022-12-18T02:50:19.583Z,91950.25
2022-12-18T02:52:55.044Z,91948.75
2022-12-18T02:55:33.935Z,91957.75
2022-12-18T02:58:19.812Z,91960.88
2022-12-18T03:00:55.766Z,91950.00
2022-12-18T03:03:47.139Z,91962.97
2022-12-18T03:06:16.466Z,91954.56
2022-12-18T03:08:47.760Z,91963.94
2022-12-18T03:11:15.253Z,91959.47
2022-12-18T03:13:46.460Z,91965.22
2022-12-18T03:16:18.142Z,91969.78
2022-12-18T03:18:50.534Z,91963.03
2022-12-18T03:21:22.505Z,91964.53
2022-12-18T03:23:52.487Z,91974.56
2022-12-18T03:26:23.294Z,91960.72
2022-12-18T03:28:59.856Z,91971.09
2022-12-18T03:31:30.254Z,91967.16
2022-12-18T03:34:00.869Z,91974.06
2022-12-18T03:36:27.888Z,91975.34
2022-12-18T03:38:54.819Z,91975.44
2022-12-18T03:41:41.804Z,91973.34
2022-12-18T03:44:37.910Z,91982.53
2022-12-18T03:47:19.836Z,91976.50
2022-12-18T03:50:18.889Z,91988.88
2022-12-18T03:53:06.834Z,91987.66
2022-12-18T03:55:36.248Z,91986.16
2022-12-18T03:58:06.324Z,91987.31
2022-12-18T04:00:34.463Z,91988.69
2022-12-18T04:03:02.740Z,91990.63
2022-12-18T04:05:31.350Z,91986.41
2022-12-18T04:07:58.890Z,91991.09
2022-12-18T04:10:25.514Z,92002.97
2022-12-18T04:12:56.461Z,91996.66
2022-12-18T04:15:23.307Z,92003.59
2022-12-18T04:17:50.844Z,92002.72
2022-12-18T04:20:17.827Z,92001.97
2022-12-18T04:22:44.829Z,92008.44
2022-12-18T04:25:11.468Z,92001.50
2022-12-18T04:27:38.105Z,92007.50
2022-12-18T04:30:05.401Z,92004.06
2022-12-18T04:32:32.046Z,92005.56
2022-12-18T04:34:58.722Z,91995.22
2022-12-18T04:37:25.818Z,92004.16
2022-12-18T04:39:52.448Z,92011.78
2022-12-18T04:42:19.095Z,92005.00
2022-12-18T04:44:45.841Z,92014.16
2022-12-18T04:47:12.554Z,92017.94
2022-12-18T04:49:39.224Z,92022.63
2022-12-18T04:52:06.163Z,92028.25
2022-12-18T04:54:32.808Z,92027.16
2022-12-18T04:56:59.457Z,92035.59
2022-12-18T04:59:26.220Z,92034.91
2022-12-18T05:01:52.986Z,92037.19
2022-12-18T05:04:19.850Z,92036.22
2022-12-18T05:06:46.691Z,92017.22
2022-12-18T05:09:13.920Z,92041.56
2022-12-18T05:11:40.617Z,92048.00
2022-12-18T05:14:07.621Z,92046.19
2022-12-18T05:16:34.927Z,92067.19
2022-12-18T05:19:01.583Z,92067.75
2022-12-18T05:21:28.384Z,92077.56
2022-12-18T05:23:55.178Z,92078.25
2022-12-18T05:26:21.934Z,92079.34
2022-12-18T05:28:48.697Z,92086.94
2022-12-18T05:31:15.673Z,92086.94
2022-12-18T05:33:42.773Z,92080.63
2022-12-18T05:36:11.078Z,92085.63
2022-12-18T05:38:39.664Z,92100.66
2022-12-18T05:41:07.178Z,92101.53
2022-12-18T05:43:36.846Z,92091.97
2022-12-18T05:46:15.180Z,92096.53
2022-12-18T05:48:43.311Z,92103.25
2022-12-18T05:51:16.229Z,92115.03
2022-12-18T05:53:44.070Z,92116.78
2022-12-18T05:56:16.801Z,92112.44
2022-12-18T05:58:44.496Z,92112.63
2022-12-18T06:01:17.924Z,92118.59
2022-12-18T06:03:46.010Z,92125.03
2022-12-18T06:06:22.045Z,92131.38
2022-12-18T06:08:49.533Z,92131.72
2022-12-18T06:11:20.102Z,92135.84
2022-12-18T06:13:47.760Z,92142.88
2022-12-18T06:16:14.656Z,92138.94
2022-12-18T06:18:41.483Z,92143.66
2022-12-18T06:21:08.488Z,92128.84
2022-12-18T06:23:37.591Z,92141.81
2022-12-18T06:26:10.115Z,92142.25
2022-12-18T06:28:36.839Z,92142.00
2022-12-18T06:31:05.301Z,92151.59
2022-12-18T06:33:32.391Z,92155.94
2022-12-18T06:36:13.234Z,92157.34
2022-12-18T06:38:43.235Z,92172.59
2022-12-18T06:41:12.715Z,92173.47
2022-12-18T06:43:39.812Z,92174.25
2022-12-18T06:46:07.313Z,92172.81
2022-12-18T06:48:34.490Z,92174.66
2022-12-18T06:51:01.262Z,92170.13
2022-12-18T06:53:28.763Z,92180.50
2022-12-18T06:56:10.254Z,92177.88
2022-12-18T06:58:38.864Z,92174.44
2022-12-18T07:01:07.773Z,92181.63
2022-12-18T07:03:34.639Z,92177.06
2022-12-18T07:06:01.680Z,92188.56
2022-12-18T07:08:30.202Z,92189.34
2022-12-18T07:10:56.825Z,92185.69
2022-12-18T07:13:24.346Z,92193.16
2022-12-18T07:15:51.038Z,92187.50
2022-12-18T07:18:17.659Z,92195.28
2022-12-18T07:20:45.285Z,92185.56
2022-12-18T07:23:12.859Z,92192.41
2022-12-18T07:25:40.513Z,92191.63
2022-12-18T07:28:08.866Z,92197.63
2022-12-18T07:30:39.538Z,92194.28
2022-12-18T07:33:09.969Z,92195.34
2022-12-18T07:35:36.812Z,92200.03
2022-12-18T07:38:03.516Z,92197.78
2022-12-18T07:40:30.488Z,92203.72
2022-12-18T07:42:59.412Z,92210.84
2022-12-18T07:45:26.272Z,92199.16
2022-12-18T07:47:53.156Z,92207.53
2022-12-18T07:50:20.084Z,92205.19
2022-12-18T07:52:46.939Z,92212.34
2022-12-18T07:55:14.615Z,92201.53
2022-12-18T07:57:50.811Z,92215.53
2022-12-18T08:00:19.499Z,92220.28
2022-12-18T08:02:48.563Z,92218.44
2022-12-18T08:05:15.460Z,92221.56
2022-12-18T08:07:42.218Z,92227.84
2022-12-18T08:10:09.372Z,92228.66
2022-12-18T08:12:36.056Z,92234.03
2022-12-18T08:15:02.787Z,92240.03
2022-12-18T08:17:29.741Z,92241.13
2022-12-18T08:19:56.437Z,92240.69
2022-12-18T08:22:23.279Z,92239.06
2022-12-18T08:24:49.920Z,92245.22
2022-12-18T08:27:31.976Z,92245.13
2022-12-18T08:29:59.328Z,92251.66
2022-12-18T08:32:27.107Z,92247.66
2022-12-18T08:34:53.839Z,92249.69
2022-12-18T08:37:20.797Z,92245.63
2022-12-18T08:39:47.510Z,92241.84
2022-12-18T08:42:33.248Z,92241.44
2022-12-18T08:45:00.147Z,92239.41
2022-12-18T08:47:27.158Z,92243.06
2022-12-18T08:49:53.986Z,92246.88
2022-12-18T08:52:20.964Z,92236.72
2022-12-18T08:54:47.754Z,92243.75
2022-12-18T08:57:14.737Z,92235.88
2022-12-18T08:59:41.421Z,92233.72
2022-12-18T09:02:11.744Z,92229.69
2022-12-18T09:04:38.762Z,92232.78
2022-12-18T09:07:05.460Z,92232.91
2022-12-18T09:09:32.123Z,92234.06
2022-12-18T09:11:59.151Z,92234.09
2022-12-18T09:14:25.786Z,92233.66
2022-12-18T09:16:52.425Z,92231.94
2022-12-18T09:19:19.152Z,92237.22
2022-12-18T09:21:48.319Z,92217.88
2022-12-18T09:24:16.355Z,92236.31
2022-12-18T09:26:44.233Z,92230.91
2022-12-18T09:29:15.582Z,92236.13
2022-12-18T09:31:43.103Z,92232.16
2022-12-18T09:34:09.948Z,92224.81
2022-12-18T09:36:36.771Z,92220.06
2022-12-18T09:39:08.053Z,92222.75
2022-12-18T09:41:48.505Z,92225.69
2022-12-18T09:44:23.989Z,92218.72
2022-12-18T09:47:12.244Z,92220.47
2022-12-18T09:49:44.119Z,92218.38
2022-12-18T09:52:18.801Z,92213.88
2022-12-18T09:54:53.023Z,92209.97
2022-12-18T09:57:23.656Z,92210.41
2022-12-18T09:59:55.374Z,92201.72
2022-12-18T10:02:25.354Z,92213.25
2022-12-18T10:05:06.509Z,92213.56
2022-12-18T10:07:56.413Z,92211.84
2022-12-18T10:10:35.094Z,92216.53
2022-12-18T10:13:13.966Z,92219.19
2022-12-18T10:15:55.926Z,92213.03
2022-12-18T10:18:45.462Z,92218.22
2022-12-18T10:21:19.504Z,92214.66
2022-12-18T10:23:52.289Z,92214.31
2022-12-18T10:26:19.272Z,92213.09
2022-12-18T10:28:46.825Z,92211.75
2022-12-18T10:31:18.546Z,92211.00
2022-12-18T10:33:45.471Z,92206.16
2022-12-18T10:36:12.300Z,92209.13
2022-12-18T10:38:40.087Z,92212.38
2022-12-18T10:41:27.805Z,92218.75
2022-12-18T10:44:31.588Z,92219.44
2022-12-18T10:47:11.487Z,92209.13
2022-12-18T10:49:51.626Z,92222.91
2022-12-18T10:52:27.115Z,92220.88
2022-12-18T10:54:59.818Z,92215.63
2022-12-18T10:57:41.589Z,92213.81
2022-12-18T11:00:36.927Z,92218.81
2022-12-18T11:03:03.937Z,92174.72
2022-12-18T11:05:31.905Z,92210.25
2022-12-18T11:08:00.375Z,92210.38
2022-12-18T11:10:33.619Z,92184.41
2022-12-18T11:13:25.507Z,92199.38
2022-12-18T11:15:53.160Z,92196.47
2022-12-18T11:18:30.946Z,92196.13
2022-12-18T11:21:08.690Z,92201.81
2022-12-18T11:23:37.283Z,92200.56
2022-12-18T11:26:07.226Z,92198.78
2022-12-18T11:28:42.291Z,92199.41
2022-12-18T11:31:17.128Z,92199.31
2022-12-18T11:34:12.252Z,92203.88
2022-12-18T11:36:49.134Z,92191.91
2022-12-18T11:39:30.774Z,92198.91
2022-12-18T11:42:12.912Z,92193.66
2022-12-18T11:44:43.709Z,92207.78
2022-12-18T11:47:32.053Z,92200.56
2022-12-18T11:50:02.315Z,92197.78
2022-12-18T11:52:38.008Z,92200.22
2022-12-18T11:55:38.184Z,92202.97
2022-12-18T11:58:19.999Z,92209.34
2022-12-18T12:01:28.904Z,92217.84
2022-12-18T12:04:21.992Z,92218.53
2022-12-18T12:07:01.485Z,92215.66
2022-12-18T12:09:40.780Z,92209.28
2022-12-18T12:12:29.735Z,92207.06
2022-12-18T12:15:11.263Z,92216.47
2022-12-18T12:17:52.349Z,92218.88
2022-12-18T12:20:42.242Z,92222.53
2022-12-18T12:23:31.343Z,92218.19
2022-12-18T12:26:29.166Z,92215.00
2022-12-18T12:29:26.755Z,92214.78
2022-12-18T12:32:08.253Z,92220.97
2022-12-18T12:34:37.925Z,92215.50
2022-12-18T12:37:12.857Z,92223.91
2022-12-18T12:39:44.249Z,92216.53
2022-12-18T12:42:40.164Z,92218.72
2022-12-18T12:45:08.227Z,92223.25
2022-12-18T12:47:44.119Z,92221.22
2022-12-18T12:50:21.230Z,92218.06
2022-12-18T12:52:54.920Z,92218.00
2022-12-18T12:55:25.396Z,92230.97
2022-12-18T12:57:57.272Z,92223.78
2022-12-18T13:00:25.439Z,92225.72
2022-12-18T13:02:58.588Z,92240.78
2022-12-18T13:05:32.540Z,92232.81
2022-12-18T13:08:04.864Z,92225.84
2022-12-18T13:10:38.068Z,92230.09
2022-12-18T13:13:24.249Z,92241.44
2022-12-18T13:16:07.692Z,92228.56
2022-12-18T13:18:35.340Z,92233.94
2022-12-18T13:21:03.657Z,92242.16
2022-12-18T13:23:33.643Z,92237.16
2022-12-18T13:26:09.334Z,92242.25
2022-12-18T13:28:48.095Z,92244.75
2022-12-18T13:31:16.383Z,92246.38
2022-12-18T13:34:23.914Z,92243.59
2022-12-18T13:36:36.148Z,92245.16
2022-12-18T13:39:28.590Z,92250.94
2022-12-18T13:42:05.671Z,92234.03
2022-12-18T13:44:40.227Z,92234.03
2022-12-18T13:47:37.453Z,92253.31
2022-12-18T13:50:21.934Z,92259.81
2022-12-18T13:52:49.653Z,92268.72
2022-12-18T13:55:20.191Z,92263.22
2022-12-18T13:57:47.657Z,92271.59
2022-12-18T14:00:23.670Z,92267.78
2022-12-18T14:02:51.455Z,92261.50
2022-12-18T14:05:38.600Z,92267.13
2022-12-18T14:08:12.604Z,92274.72
2022-12-18T14:10:48.426Z,92275.88
2022-12-18T14:13:35.164Z,92278.56
2022-12-18T14:16:04.720Z,92282.88
2022-12-18T14:19:15.853Z,92290.44
2022-12-18T14:21:50.916Z,92285.63
2022-12-18T14:24:21.747Z,92294.88
2022-12-18T14:26:50.836Z,92298.91
2022-12-18T14:29:30.072Z,92296.69
2022-12-18T14:32:17.859Z,92298.47
2022-12-18T14:34:46.939Z,92304.78
2022-12-18T14:37:16.681Z,92307.84
2022-12-18T14:39:55.289Z,92308.75
2022-12-18T14:42:22.293Z,92309.22
2022-12-18T14:47:35.741Z,92310.84
2022-12-18T14:50:02.517Z,92317.31
2022-12-18T14:52:32.443Z,92314.38
2022-12-18T14:54:59.191Z,92315.69
2022-12-18T14:57:33.472Z,92317.25
2022-12-18T15:00:16.279Z,92309.19
2022-12-18T15:02:44.372Z,92324.91
2022-12-18T15:05:14.057Z,92324.25
2022-12-18T15:07:46.287Z,92337.47
2022-12-18T15:10:16.650Z,92330.69
2022-12-18T15:12:48.552Z,92336.56
2022-12-18T15:15:34.332Z,92339.47
2022-12-18T15:18:13.061Z,92331.28
2022-12-18T15:20:56.700Z,92322.78
2022-12-18T15:23:29.668Z,92342.09
2022-12-18T15:26:01.518Z,92350.91
2022-12-18T15:28:54.124Z,92340.88
2022-12-18T15:31:25.710Z,92350.44
2022-12-18T15:33:53.451Z,92359.31
2022-12-18T15:36:26.837Z,92364.47
2022-12-18T15:38:57.890Z,92366.03
2022-12-18T15:41:35.208Z,92372.53
2022-12-18T15:44:04.480Z,92380.06
2022-12-18T15:46:32.091Z,92380.44
2022-12-18T15:49:02.561Z,92373.06
2022-12-18T15:51:33.698Z,92376.50
2022-12-18T15:54:04.750Z,92384.09
2022-12-18T15:56:50.625Z,92383.59
2022-12-18T15:59:19.910Z,92390.00
2022-12-18T16:01:49.202Z,92398.34
2022-12-18T16:04:18.494Z,92395.22
2022-12-18T16:07:13.149Z,92405.06
2022-12-18T16:09:32.033Z,92384.47
2022-12-18T16:11:58.781Z,92409.44
2022-12-18T16:14:28.400Z,92404.56
2022-12-18T16:17:00.686Z,92406.72
2022-12-18T16:19:28.353Z,92402.69
2022-12-18T16:21:57.253Z,92404.84
2022-12-18T16:24:34.698Z,92400.78
2022-12-18T16:27:01.837Z,92411.41
2022-12-18T16:29:29.535Z,92421.84
2022-12-18T16:32:01.313Z,92423.66
2022-12-18T16:34:32.127Z,92421.25
2022-12-18T16:37:06.984Z,92416.34
2022-12-18T16:39:35.448Z,92424.34
2022-12-18T16:42:05.711Z,92426.78
2022-12-18T16:44:34.271Z,92424.53
2022-12-18T16:47:03.132Z,92436.94
2022-12-18T16:49:30.828Z,92449.56
2022-12-18T16:51:58.075Z,92448.28
2022-12-18T16:54:25.173Z,92442.66
2022-12-18T16:56:52.545Z,92448.69
2022-12-18T16:59:20.051Z,92459.72
2022-12-18T17:01:47.509Z,92456.50
2022-12-18T17:04:15.266Z,92470.03
2022-12-18T17:06:44.243Z,92469.81
2022-12-18T17:09:16.183Z,92473.19
2022-12-18T17:11:44.016Z,92467.81
2022-12-18T17:14:15.332Z,92467.97
2022-12-18T17:16:42.157Z,92463.38
2022-12-18T17:19:12.273Z,92466.50
2022-12-18T17:21:45.755Z,92468.31
2022-12-18T17:24:12.506Z,92471.69
2022-12-18T17:26:39.331Z,92476.16
2022-12-18T17:29:06.519Z,92471.69
2022-12-18T17:31:34.176Z,92474.47
2022-12-18T17:34:04.492Z,92475.38
2022-12-18T17:36:32.619Z,92480.16
2022-12-18T17:39:03.044Z,92471.06
2022-12-18T17:41:30.902Z,92478.00
2022-12-18T17:44:03.986Z,92488.75
2022-12-18T17:46:33.069Z,92485.97
2022-12-18T17:49:02.613Z,92498.88
2022-12-18T17:51:30.205Z,92504.84
2022-12-18T17:53:57.035Z,92500.56
2022-12-18T17:56:24.864Z,92496.44
2022-12-18T17:58:52.463Z,92515.28
2022-12-18T18:01:23.245Z,92513.59
2022-12-18T18:03:53.491Z,92518.19
2022-12-18T18:06:21.485Z,92530.94
2022-12-18T18:08:48.366Z,92542.41
2022-12-18T18:11:36.873Z,92538.59
2022-12-18T18:14:06.993Z,92529.38
2022-12-18T18:16:40.340Z,92534.28
2022-12-18T18:19:10.388Z,92536.56
2022-12-18T18:21:42.961Z,92545.19
2022-12-18T18:24:11.517Z,92542.25
2022-12-18T18:26:38.838Z,92539.66
2022-12-18T18:29:07.679Z,92545.16
2022-12-18T18:31:40.335Z,92539.66
2022-12-18T18:34:11.034Z,92536.00
2022-12-18T18:36:37.656Z,92532.59
2022-12-18T18:39:04.419Z,92537.78
2022-12-18T18:41:31.529Z,92545.34
2022-12-18T18:43:58.830Z,92543.34
2022-12-18T18:46:26.631Z,92537.50
2022-12-18T18:48:54.274Z,92547.94
2022-12-18T18:51:23.380Z,92550.53
2022-12-18T18:53:52.586Z,92550.69
2022-12-18T18:59:09.830Z,92560.03
2022-12-18T19:01:36.818Z,92564.66
2022-12-18T19:04:04.126Z,92572.47
2022-12-18T19:06:31.273Z,92575.06
2022-12-18T19:09:01.797Z,92575.06
2022-12-18T19:11:47.721Z,92574.28
2022-12-18T19:14:16.555Z,92577.19
2022-12-18T19:16:45.000Z,92579.19
2022-12-18T19:19:13.161Z,92585.78
2022-12-18T19:21:40.141Z,92577.63
2022-12-18T19:24:07.877Z,92581.00
2022-12-18T19:26:37.803Z,92573.03
2022-12-18T19:29:08.529Z,92570.72
2022-12-18T19:31:37.260Z,92581.94
2022-12-18T19:34:06.781Z,92585.41
2022-12-18T19:36:35.501Z,92591.97
2022-12-18T19:39:06.998Z,92593.22
2022-12-18T19:41:33.992Z,92595.50
2022-12-18T19:44:02.266Z,92592.44
2022-12-18T19:46:34.842Z,92599.63
2022-12-18T19:49:02.146Z,92610.38
2022-12-18T19:51:30.919Z,92619.13
2022-12-18T19:54:01.383Z,92613.00
2022-12-18T19:56:31.587Z,92619.88
2022-12-18T19:58:58.618Z,92619.25
2022-12-18T20:01:26.797Z,92613.88
2022-12-18T20:03:55.329Z,92609.16
2022-12-18T20:06:47.565Z,92615.69
2022-12-18T20:09:14.979Z,92614.16
2022-12-18T20:11:42.548Z,92620.28
2022-12-18T20:14:10.731Z,92623.63
2022-12-18T20:16:37.951Z,92636.44
2022-12-18T20:19:05.758Z,92630.63
2022-12-18T20:21:32.871Z,92628.03
2022-12-18T20:24:01.528Z,92634.97
2022-12-18T20:26:28.645Z,92628.31
2022-12-18T20:28:55.783Z,92631.06
2022-12-18T20:31:23.178Z,92642.59
2022-12-18T20:33:51.108Z,92640.97
2022-12-18T20:36:26.925Z,92639.31
2022-12-18T20:38:57.322Z,92649.28
2022-12-18T20:41:31.039Z,92615.03
2022-12-18T20:44:05.048Z,92644.88
2022-12-18T20:46:34.271Z,92650.38
2022-12-18T20:49:01.051Z,92648.97
2022-12-18T20:51:29.233Z,92652.34
2022-12-18T20:53:56.051Z,92653.41
2022-12-18T20:56:23.436Z,92658.59
2022-12-18T20:58:54.850Z,92663.09
2022-12-18T21:01:23.211Z,92667.50
2022-12-18T21:03:50.911Z,92666.25
2022-12-18T21:06:19.714Z,92669.34
2022-12-18T21:08:47.652Z,92671.81
2022-12-18T21:11:40.502Z,92673.19
2022-12-18T21:14:20.331Z,92664.78
2022-12-18T21:16:47.773Z,92671.00
2022-12-18T21:19:19.728Z,92669.19
2022-12-18T21:21:56.888Z,92664.97
2022-12-18T21:24:24.744Z,92668.66
2022-12-18T21:26:51.428Z,92672.09
2022-12-18T21:29:26.107Z,92680.00
2022-12-18T21:31:54.592Z,92679.44
2022-12-18T21:34:23.098Z,92673.56
2022-12-18T21:36:50.028Z,92681.19
2022-12-18T21:39:17.775Z,92685.00
2022-12-18T21:42:04.977Z,92685.19
2022-12-18T21:44:32.803Z,92671.34
2022-12-18T21:47:20.653Z,92671.56
2022-12-18T21:49:49.311Z,92675.47
2022-12-18T21:52:15.979Z,92672.97
2022-12-18T21:54:42.593Z,92680.97
2022-12-18T21:57:11.099Z,92684.94
2022-12-18T21:59:40.402Z,92678.50
2022-12-18T22:02:12.006Z,92681.13
2022-12-18T22:04:38.981Z,92672.72
2022-12-18T22:07:06.238Z,92671.47
2022-12-18T22:09:33.071Z,92669.03
2022-12-18T22:11:59.983Z,92664.81
2022-12-18T22:14:29.504Z,92672.44
2022-12-18T22:16:57.416Z,92675.00
2022-12-18T22:19:25.458Z,92674.16
2022-12-18T22:21:52.938Z,92677.44
2022-12-18T22:24:24.748Z,92687.53
2022-12-18T22:26:59.527Z,92683.03
2022-12-18T22:29:47.439Z,92662.72
2022-12-18T22:32:18.940Z,92678.50
2022-12-18T22:35:04.577Z,92678.50
2022-12-18T22:37:34.029Z,92676.97
2022-12-18T22:40:03.248Z,92682.56
2022-12-18T22:42:30.638Z,92677.91
2022-12-18T22:44:57.301Z,92677.81
2022-12-18T22:47:29.221Z,92670.22
2022-12-18T22:49:56.664Z,92677.41
2022-12-18T22:52:24.708Z,92676.97
2022-12-18T22:54:53.376Z,92671.59
2022-12-18T22:57:22.724Z,92673.69
2022-12-18T22:59:50.721Z,92676.00
2022-12-18T23:02:18.881Z,92669.41
2022-12-18T23:04:45.954Z,92672.84
2022-12-18T23:07:12.757Z,92685.53
2022-12-18T23:09:39.956Z,92684.78
2022-12-18T23:12:07.144Z,92681.69
2022-12-18T23:14:33.959Z,92687.28
2022-12-18T23:17:00.660Z,92684.06
2022-12-18T23:19:27.378Z,92685.47
2022-12-18T23:21:54.848Z,92688.56
2022-12-18T23:24:25.431Z,92683.81
2022-12-18T23:26:52.195Z,92679.41
2022-12-18T23:29:18.881Z,92683.72
2022-12-18T23:31:45.691Z,92681.72
2022-12-18T23:34:14.165Z,92678.91
2022-12-18T23:36:45.224Z,92678.72
2022-12-18T23:39:17.976Z,92677.09
2022-12-18T23:41:58.325Z,92681.88
2022-12-18T23:44:25.812Z,92687.13
2022-12-18T23:46:52.911Z,92680.28
2022-12-18T23:49:19.892Z,92672.53
2022-12-18T23:51:46.527Z,92685.53
2022-12-18T23:54:13.119Z,92680.09
2022-12-18T23:56:40.184Z,92684.06
2022-12-18T23:59:06.873Z,92684.38
